createdAt,value
2019-01-15T00:00:01.625Z,4.40
2019-01-15T00:02:33.577Z,4.40
2019-01-15T00:05:04.832Z,4.50
2019-01-15T00:07:35.186Z,4.50
2019-01-15T00:10:07.206Z,4.50
2019-01-15T00:12:37.575Z,4.50
2019-01-15T00:15:08.098Z,4.40
2019-01-15T00:17:38.470Z,4.40
2019-01-15T00:20:09.062Z,4.30
2019-01-15T00:22:39.447Z,4.30
2019-01-15T00:25:14.082Z,4.20
2019-01-15T00:27:44.456Z,4.20
2019-01-15T00:30:16.453Z,4.20
2019-01-15T00:32:46.842Z,4.20
2019-01-15T00:35:17.183Z,4.20
2019-01-15T00:37:47.562Z,4.20
2019-01-15T00:40:18.683Z,4.20
2019-01-15T00:42:49.047Z,4.20
2019-01-15T00:45:19.380Z,4.20
2019-01-15T00:47:49.846Z,4.20
2019-01-15T00:50:20.207Z,4.20
2019-01-15T00:52:50.600Z,4.20
2019-01-15T00:55:20.979Z,4.20
2019-01-15T00:57:51.367Z,4.20
2019-01-15T01:00:23.106Z,4.20
2019-01-15T01:02:53.564Z,4.20
2019-01-15T01:05:23.960Z,4.20
2019-01-15T01:07:54.299Z,4.20
2019-01-15T01:10:24.650Z,4.20
2019-01-15T01:12:55.079Z,4.20
2019-01-15T01:15:25.427Z,4.20
2019-01-15T01:17:55.835Z,4.20
2019-01-15T01:20:26.194Z,4.20
2019-01-15T01:22:56.566Z,4.20
2019-01-15T01:25:26.942Z,4.20
2019-01-15T01:27:57.362Z,4.20
2019-01-15T01:30:46.772Z,4.20
2019-01-15T01:33:17.173Z,4.20
2019-01-15T01:35:47.577Z,4.20
2019-01-15T01:38:17.936Z,4.30
2019-01-15T01:40:48.286Z,4.30
2019-01-15T01:43:18.647Z,4.30
2019-01-15T01:45:49.002Z,4.30
2019-01-15T01:48:19.391Z,4.30
2019-01-15T01:50:49.744Z,4.30
2019-01-15T01:53:20.109Z,4.40
2019-01-15T01:55:50.446Z,4.40
2019-01-15T01:58:20.841Z,4.40
2019-01-15T02:00:51.369Z,4.40
2019-01-15T02:03:21.784Z,4.40
2019-01-15T02:05:52.898Z,4.40
2019-01-15T02:08:23.312Z,4.40
2019-01-15T02:10:53.668Z,4.50
2019-01-15T02:13:24.068Z,4.40
2019-01-15T02:15:54.586Z,4.40
2019-01-15T02:18:25.274Z,4.40
2019-01-15T02:20:56.860Z,4.40
2019-01-15T02:23:27.288Z,4.40
2019-01-15T02:25:57.836Z,4.40
2019-01-15T02:28:28.275Z,4.40
2019-01-15T02:30:58.687Z,4.30
2019-01-15T02:33:29.167Z,4.30
2019-01-15T02:35:59.815Z,4.30
2019-01-15T02:38:31.230Z,4.30
2019-01-15T02:41:01.633Z,4.30
2019-01-15T02:43:32.092Z,4.30
2019-01-15T02:46:02.513Z,4.20
2019-01-15T02:48:32.938Z,4.20
2019-01-15T02:51:03.324Z,4.20
2019-01-15T02:53:33.779Z,4.20
2019-01-15T02:56:04.260Z,4.10
2019-01-15T02:58:34.653Z,4.10
2019-01-15T03:01:05.014Z,4.10
2019-01-15T03:03:35.423Z,4.10
2019-01-15T03:06:05.897Z,4.10
2019-01-15T03:08:36.233Z,4.10
2019-01-15T03:11:06.583Z,4.10
2019-01-15T03:13:36.907Z,4.10
2019-01-15T03:16:07.275Z,4.10
2019-01-15T03:18:37.601Z,4.00
2019-01-15T03:21:07.967Z,4.00
2019-01-15T03:23:38.282Z,4.00
2019-01-15T03:26:08.649Z,4.00
2019-01-15T03:28:38.985Z,4.00
2019-01-15T03:31:09.477Z,4.00
2019-01-15T03:33:39.909Z,4.00
2019-01-15T03:36:10.261Z,4.00
2019-01-15T03:38:40.575Z,4.00
2019-01-15T03:41:10.939Z,4.00
2019-01-15T03:43:41.268Z,4.00
2019-01-15T03:46:11.631Z,4.00
2019-01-15T03:48:42.928Z,4.00
2019-01-15T03:51:13.299Z,4.00
2019-01-15T03:53:43.659Z,4.10
2019-01-15T03:56:14.035Z,4.10
2019-01-15T03:58:44.421Z,4.10
2019-01-15T04:01:14.778Z,4.10
2019-01-15T04:03:45.107Z,4.10
2019-01-15T04:06:15.458Z,4.10
2019-01-15T04:08:45.761Z,4.10
2019-01-15T04:11:16.103Z,4.10
2019-01-15T04:13:46.459Z,4.10
2019-01-15T04:16:16.866Z,4.10
2019-01-15T04:18:47.200Z,4.10
2019-01-15T04:21:17.586Z,4.10
2019-01-15T04:24:07.033Z,4.10
2019-01-15T04:26:37.555Z,4.10
2019-01-15T04:29:07.953Z,4.10
2019-01-15T04:31:38.295Z,4.10
2019-01-15T04:34:08.665Z,4.10
2019-01-15T04:36:39.016Z,4.10
2019-01-15T04:39:09.803Z,4.10
2019-01-15T04:41:40.133Z,4.10
2019-01-15T04:44:10.504Z,4.20
2019-01-15T04:46:40.859Z,4.20
2019-01-15T04:49:11.242Z,4.10
2019-01-15T04:51:41.566Z,4.20
2019-01-15T04:54:11.925Z,4.20
2019-01-15T04:56:42.459Z,4.20
2019-01-15T04:59:12.825Z,4.20
2019-01-15T05:01:43.266Z,4.20
2019-01-15T05:04:13.700Z,4.30
2019-01-15T05:06:45.741Z,4.30
2019-01-15T05:09:16.175Z,4.30
2019-01-15T05:11:46.705Z,4.30
2019-01-15T05:14:17.095Z,4.30
2019-01-15T05:16:47.419Z,4.30
2019-01-15T05:19:17.826Z,4.30
2019-01-15T05:21:48.269Z,4.30
2019-01-15T05:24:18.832Z,4.30
2019-01-15T05:26:49.519Z,4.30
2019-01-15T05:29:20.053Z,4.30
2019-01-15T05:31:50.591Z,4.30
2019-01-15T05:34:21.120Z,4.30
2019-01-15T05:36:52.648Z,4.30
2019-01-15T05:39:23.107Z,4.30
2019-01-15T05:41:54.013Z,4.40
2019-01-15T05:44:24.566Z,4.40
2019-01-15T05:46:55.150Z,4.40
2019-01-15T05:49:25.709Z,4.40
2019-01-15T05:51:57.043Z,4.40
2019-01-15T05:54:27.747Z,4.40
2019-01-15T05:56:58.300Z,4.50
2019-01-15T05:59:28.821Z,4.50
2019-01-15T06:01:59.147Z,4.50
2019-01-15T06:04:29.546Z,4.50
2019-01-15T06:06:59.893Z,4.60
2019-01-15T06:09:30.244Z,4.60
2019-01-15T06:12:00.619Z,4.60
2019-01-15T06:14:31.220Z,4.60
2019-01-15T06:17:01.585Z,4.60
2019-01-15T06:19:32.047Z,4.60
2019-01-15T06:22:04.106Z,4.70
2019-01-15T06:24:34.460Z,4.70
2019-01-15T06:27:05.048Z,4.70
2019-01-15T06:29:35.409Z,4.70
2019-01-15T06:32:05.765Z,4.70
2019-01-15T06:34:36.215Z,4.70
2019-01-15T06:37:06.652Z,4.70
2019-01-15T06:39:37.055Z,4.70
2019-01-15T06:42:07.423Z,4.70
2019-01-15T06:44:37.801Z,4.70
2019-01-15T06:47:08.170Z,4.70
2019-01-15T06:49:38.529Z,4.70
2019-01-15T06:52:08.870Z,4.70
2019-01-15T06:54:39.246Z,4.70
2019-01-15T06:57:09.591Z,4.70
2019-01-15T06:59:39.977Z,4.70
2019-01-15T07:02:10.404Z,4.70
2019-01-15T07:04:44.057Z,4.70
2019-01-15T07:07:12.756Z,4.80
2019-01-15T07:09:43.167Z,4.70
2019-01-15T07:12:13.508Z,4.80
2019-01-15T07:14:43.874Z,4.80
2019-01-15T07:17:14.229Z,4.70
2019-01-15T07:19:44.626Z,4.70
2019-01-15T07:22:15.051Z,4.80
2019-01-15T07:24:45.421Z,4.70
2019-01-15T07:27:15.805Z,4.70
2019-01-15T07:29:46.161Z,4.70
2019-01-15T07:32:16.515Z,4.70
2019-01-15T07:34:46.880Z,4.70
2019-01-15T07:37:17.266Z,4.70
2019-01-15T07:39:47.626Z,4.60
2019-01-15T07:42:17.983Z,4.60
2019-01-15T07:44:48.350Z,4.70
2019-01-15T07:47:18.760Z,4.70
2019-01-15T07:49:50.178Z,4.70
2019-01-15T07:52:21.604Z,4.60
2019-01-15T07:54:52.066Z,4.70
2019-01-15T07:57:22.442Z,4.70
2019-01-15T07:59:52.816Z,4.70
2019-01-15T08:02:23.463Z,4.80
2019-01-15T08:04:53.867Z,4.80
2019-01-15T08:07:24.214Z,4.90
2019-01-15T08:09:54.575Z,4.90
2019-01-15T08:12:25.076Z,5.00
2019-01-15T08:14:55.529Z,5.10
2019-01-15T08:17:26.945Z,5.20
2019-01-15T08:19:57.319Z,5.20
2019-01-15T08:22:27.691Z,5.30
2019-01-15T08:24:58.118Z,5.30
2019-01-15T08:27:28.606Z,5.40
2019-01-15T08:29:58.990Z,5.40
2019-01-15T08:32:29.338Z,5.50
2019-01-15T08:34:59.720Z,5.50
2019-01-15T08:37:30.987Z,5.50
2019-01-15T08:40:01.410Z,5.60
2019-01-15T08:42:31.890Z,5.60
2019-01-15T08:45:02.557Z,5.60
2019-01-15T08:47:36.143Z,5.50
2019-01-15T08:50:08.773Z,5.50
2019-01-15T08:52:39.134Z,5.40
2019-01-15T08:55:09.580Z,5.30
2019-01-15T08:57:40.054Z,5.20
2019-01-15T09:00:11.959Z,5.10
2019-01-15T09:02:42.304Z,5.10
2019-01-15T09:05:12.757Z,5.10
2019-01-15T09:07:43.131Z,5.10
2019-01-15T09:10:14.605Z,5.10
2019-01-15T09:12:45.367Z,5.10
2019-01-15T09:15:16.873Z,5.10
2019-01-15T09:17:47.311Z,5.20
2019-01-15T09:20:19.096Z,5.30
2019-01-15T09:22:49.792Z,5.40
2019-01-15T09:25:20.170Z,5.50
2019-01-15T09:27:50.502Z,5.60
2019-01-15T09:30:22.054Z,5.70
2019-01-15T09:32:52.531Z,5.80
2019-01-15T09:35:22.892Z,6.00
2019-01-15T09:37:53.450Z,6.20
2019-01-15T09:40:24.728Z,6.30
2019-01-15T09:42:55.080Z,6.40
2019-01-15T09:45:25.813Z,6.40
2019-01-15T09:48:03.981Z,6.40
2019-01-15T09:50:34.350Z,6.50
2019-01-15T09:53:04.945Z,6.60
2019-01-15T09:55:35.667Z,6.70
2019-01-15T09:58:06.974Z,6.70
2019-01-15T10:00:37.348Z,6.70
2019-01-15T10:03:07.682Z,6.80
2019-01-15T10:05:38.074Z,6.90
2019-01-15T10:08:08.391Z,6.90
2019-01-15T10:10:38.765Z,6.90
2019-01-15T10:13:09.111Z,7.00
2019-01-15T10:15:39.535Z,7.00
2019-01-15T10:18:09.885Z,7.00
2019-01-15T10:20:40.193Z,7.00
2019-01-15T10:23:10.550Z,7.00
2019-01-15T10:25:42.527Z,7.10
2019-01-15T10:28:13.317Z,7.00
2019-01-15T10:31:41.101Z,7.10
2019-01-15T10:34:19.259Z,7.10
2019-01-15T10:36:47.946Z,7.10
2019-01-15T10:39:18.268Z,7.10
2019-01-15T10:41:48.606Z,7.10
2019-01-15T10:44:18.927Z,7.10
2019-01-15T10:46:49.265Z,7.10
2019-01-15T10:49:19.595Z,7.20
2019-01-15T10:51:49.952Z,7.20
2019-01-15T10:54:20.281Z,7.20
2019-01-15T10:56:51.157Z,7.20
2019-01-15T10:59:21.490Z,7.20
2019-01-15T11:01:52.080Z,7.30
2019-01-15T11:04:22.407Z,7.30
2019-01-15T11:06:52.899Z,7.40
2019-01-15T11:09:23.216Z,7.40
2019-01-15T11:11:53.684Z,7.50
2019-01-15T11:14:24.403Z,7.50
2019-01-15T11:16:54.986Z,7.60
2019-01-15T11:19:25.315Z,7.60
2019-01-15T11:21:55.722Z,7.70
2019-01-15T11:24:26.041Z,7.80
2019-01-15T11:26:56.357Z,7.80
2019-01-15T11:29:26.743Z,7.80
2019-01-15T11:31:57.239Z,7.80
2019-01-15T11:34:27.735Z,7.80
2019-01-15T11:36:58.116Z,7.80
2019-01-15T11:39:28.606Z,7.80
2019-01-15T11:41:59.001Z,7.90
2019-01-15T11:44:29.507Z,7.90
2019-01-15T11:46:59.835Z,8.00
2019-01-15T11:49:30.777Z,8.00
2019-01-15T11:52:02.218Z,8.00
2019-01-15T11:54:32.586Z,8.00
2019-01-15T11:57:02.940Z,8.00
2019-01-15T11:59:33.400Z,8.10
2019-01-15T12:02:13.467Z,8.10
2019-01-15T12:05:01.328Z,8.10
2019-01-15T12:07:49.396Z,8.10
2019-01-15T12:10:34.153Z,8.10
2019-01-15T12:13:23.396Z,8.10
2019-01-15T12:16:04.369Z,8.10
2019-01-15T12:19:08.726Z,8.10
2019-01-15T12:21:59.070Z,8.10
2019-01-15T12:24:47.316Z,8.10
2019-01-15T12:27:45.656Z,8.10
2019-01-15T12:30:41.710Z,8.10
2019-01-15T12:33:31.091Z,8.10
2019-01-15T12:36:17.146Z,8.10
2019-01-15T12:39:10.251Z,8.20
2019-01-15T12:42:14.952Z,8.20
2019-01-15T12:45:07.406Z,8.20
2019-01-15T12:48:15.130Z,8.20
2019-01-15T12:51:10.724Z,8.30
2019-01-15T12:54:12.267Z,8.30
2019-01-15T12:57:19.008Z,8.40
2019-01-15T13:00:04.854Z,8.40
2019-01-15T13:02:54.170Z,8.40
2019-01-15T13:05:43.552Z,8.50
2019-01-15T13:08:31.825Z,8.50
2019-01-15T13:11:27.188Z,8.60
2019-01-15T13:14:09.192Z,8.60
2019-01-15T13:16:57.138Z,8.60
2019-01-15T13:19:45.142Z,8.60
2019-01-15T13:22:29.929Z,8.60
2019-01-15T13:25:37.714Z,8.60
2019-01-15T13:28:28.216Z,8.60
2019-01-15T13:31:23.451Z,8.70
2019-01-15T13:34:04.696Z,8.70
2019-01-15T13:36:53.242Z,8.80
2019-01-15T13:39:45.318Z,8.90
2019-01-15T13:42:29.301Z,8.90
2019-01-15T13:45:18.684Z,8.90
2019-01-15T13:48:05.796Z,8.90
2019-01-15T13:51:07.208Z,8.90
2019-01-15T13:53:57.761Z,8.90
2019-01-15T13:56:50.106Z,8.90
2019-01-15T13:59:57.590Z,8.90
2019-01-15T14:03:01.969Z,8.90
2019-01-15T14:05:39.881Z,8.80
2019-01-15T14:08:38.462Z,8.80
2019-01-15T14:11:36.987Z,8.70
2019-01-15T14:14:38.263Z,8.70
2019-01-15T14:17:24.703Z,8.60
2019-01-15T14:20:20.157Z,8.60
2019-01-15T14:23:29.301Z,8.60
2019-01-15T14:26:08.119Z,8.60
2019-01-15T14:29:15.580Z,8.50
2019-01-15T14:32:04.036Z,8.50
2019-01-15T14:34:59.528Z,8.50
2019-01-15T14:37:58.454Z,8.50
2019-01-15T14:40:53.938Z,8.50
2019-01-15T14:43:42.271Z,8.50
2019-01-15T14:46:34.671Z,8.50
2019-01-15T14:49:22.375Z,8.60
2019-01-15T14:52:11.627Z,8.60
2019-01-15T14:55:10.064Z,8.60
2019-01-15T14:58:17.565Z,8.70
2019-01-15T15:01:19.007Z,8.70
2019-01-15T15:04:23.585Z,8.70
2019-01-15T15:07:12.970Z,8.70
2019-01-15T15:10:01.138Z,8.70
2019-01-15T15:12:49.011Z,8.70
2019-01-15T15:15:44.449Z,8.70
2019-01-15T15:18:32.932Z,8.70
2019-01-15T15:21:26.015Z,8.70
2019-01-15T15:24:18.074Z,8.60
2019-01-15T15:27:06.873Z,8.60
2019-01-15T15:29:56.171Z,8.60
2019-01-15T15:32:51.556Z,8.50
2019-01-15T15:35:59.063Z,8.50
2019-01-15T15:38:48.434Z,8.50
2019-01-15T15:41:36.347Z,8.50
2019-01-15T15:44:17.863Z,8.40
2019-01-15T15:47:10.433Z,8.40
2019-01-15T15:49:54.119Z,8.40
2019-01-15T15:52:43.475Z,8.40
2019-01-15T15:55:25.635Z,8.40
2019-01-15T15:58:27.390Z,8.40
2019-01-15T16:01:15.724Z,8.30
2019-01-15T16:04:03.827Z,8.30
2019-01-15T16:06:56.176Z,8.30
2019-01-15T16:10:03.730Z,8.20
2019-01-15T16:12:52.025Z,8.20
2019-01-15T16:15:40.818Z,8.20
2019-01-15T16:18:35.175Z,8.10
2019-01-15T16:21:23.154Z,8.10
2019-01-15T16:24:18.591Z,8.10
2019-01-15T16:27:07.698Z,8.10
2019-01-15T16:30:04.710Z,8.10
2019-01-15T16:33:03.441Z,8.00
2019-01-15T16:35:58.923Z,8.00
2019-01-15T16:38:49.518Z,8.00
2019-01-15T16:41:35.703Z,8.00
2019-01-15T16:44:21.634Z,8.00
2019-01-15T16:47:12.043Z,8.10
2019-01-15T16:50:13.363Z,8.10
2019-01-15T16:53:05.734Z,8.10
2019-01-15T16:55:57.307Z,8.10
2019-01-15T16:58:40.612Z,8.10
2019-01-15T17:01:28.791Z,8.10
2019-01-15T17:04:27.090Z,8.10
2019-01-15T17:07:15.070Z,8.10
2019-01-15T17:10:03.218Z,8.10
2019-01-15T17:12:51.217Z,8.10
2019-01-15T17:15:49.417Z,8.00
2019-01-15T17:18:35.119Z,8.00
2019-01-15T17:21:24.424Z,8.00
2019-01-15T17:24:27.099Z,8.00
2019-01-15T17:27:15.107Z,8.00
2019-01-15T17:30:01.530Z,8.00
2019-01-15T17:32:49.718Z,8.00
2019-01-15T17:35:45.390Z,7.90
2019-01-15T17:38:33.668Z,7.90
2019-01-15T17:41:32.083Z,7.90
2019-01-15T17:44:20.593Z,7.80
2019-01-15T17:47:22.485Z,7.90
2019-01-15T17:50:17.413Z,7.90
2019-01-15T17:53:09.971Z,7.90
2019-01-15T17:55:59.287Z,7.90
2019-01-15T17:58:47.371Z,7.90
2019-01-15T18:01:32.638Z,8.00
2019-01-15T18:04:23.217Z,8.00
2019-01-15T18:07:16.454Z,8.00
2019-01-15T18:10:04.733Z,8.00
2019-01-15T18:12:56.888Z,8.00
2019-01-15T18:15:55.305Z,8.00
2019-01-15T18:18:44.638Z,8.00
2019-01-15T18:21:41.609Z,7.90
2019-01-15T18:24:49.676Z,8.00
2019-01-15T18:27:39.379Z,8.00
2019-01-15T18:30:30.902Z,7.90
2019-01-15T18:33:23.535Z,7.90
2019-01-15T18:36:13.273Z,7.90
2019-01-15T18:39:18.147Z,8.00
2019-01-15T18:42:13.633Z,8.00
2019-01-15T18:45:05.668Z,8.00
2019-01-15T18:48:10.122Z,8.00
2019-01-15T18:51:00.415Z,8.00
2019-01-15T18:53:45.019Z,8.00
2019-01-15T18:56:37.202Z,8.00
2019-01-15T18:59:34.384Z,8.00
2019-01-15T19:02:24.545Z,8.10
2019-01-15T19:05:04.104Z,8.00
2019-01-15T19:07:56.635Z,8.00
2019-01-15T19:10:55.120Z,8.10
2019-01-15T19:13:50.287Z,8.00
2019-01-15T19:16:34.912Z,8.00
2019-01-15T19:19:20.116Z,8.00
2019-01-15T19:22:09.394Z,8.00
2019-01-15T19:24:57.622Z,8.00
2019-01-15T19:27:37.818Z,8.00
2019-01-15T19:30:19.454Z,7.90
2019-01-15T19:33:17.921Z,7.90
2019-01-15T19:36:06.119Z,7.90
2019-01-15T19:38:58.538Z,7.90
2019-01-15T19:41:50.720Z,7.80
2019-01-15T19:44:40.085Z,7.80
2019-01-15T19:47:28.390Z,7.80
2019-01-15T19:50:17.550Z,7.80
2019-01-15T19:53:09.679Z,7.80
2019-01-15T19:55:57.624Z,7.80
2019-01-15T19:58:54.465Z,7.80
2019-01-15T20:01:59.314Z,7.70
2019-01-15T20:04:50.015Z,7.80
2019-01-15T20:07:49.939Z,7.80
2019-01-15T20:10:47.431Z,7.80
2019-01-15T20:13:46.641Z,7.80
2019-01-15T20:16:39.177Z,7.80
2019-01-15T20:19:27.608Z,7.80
2019-01-15T20:22:15.589Z,7.80
2019-01-15T20:25:04.981Z,7.80
2019-01-15T20:27:52.849Z,7.80
2019-01-15T20:30:41.010Z,7.80
2019-01-15T20:33:29.182Z,7.80
2019-01-15T20:36:17.390Z,7.80
2019-01-15T20:39:03.173Z,7.80
2019-01-15T20:42:06.378Z,7.80
2019-01-15T20:45:04.831Z,7.80
2019-01-15T20:47:54.337Z,7.80
2019-01-15T20:50:42.718Z,7.80
2019-01-15T20:53:37.173Z,7.80
2019-01-15T20:56:26.528Z,7.80
2019-01-15T20:59:06.241Z,7.80
2019-01-15T21:01:58.777Z,7.70
2019-01-15T21:04:58.760Z,7.70
2019-01-15T21:07:46.713Z,7.70
2019-01-15T21:10:39.248Z,7.70
2019-01-15T21:13:31.331Z,7.60
2019-01-15T21:16:14.882Z,7.60
2019-01-15T21:19:10.439Z,7.50
2019-01-15T21:22:09.167Z,7.50
2019-01-15T21:25:07.682Z,7.50
2019-01-15T21:27:58.086Z,7.40
2019-01-15T21:30:50.599Z,7.40
2019-01-15T21:33:44.176Z,7.40
2019-01-15T21:36:45.874Z,7.30
2019-01-15T21:39:26.703Z,7.30
2019-01-15T21:42:15.077Z,7.30
2019-01-15T21:45:04.375Z,7.30
2019-01-15T21:47:53.761Z,7.30
2019-01-15T21:51:01.465Z,7.30
2019-01-15T21:53:49.552Z,7.20
2019-01-15T21:56:47.880Z,7.20
2019-01-15T21:59:29.814Z,7.20
2019-01-15T22:02:25.223Z,7.20
2019-01-15T22:05:07.250Z,7.20
2019-01-15T22:08:03.052Z,7.20
2019-01-15T22:11:04.642Z,7.20
2019-01-15T22:13:53.946Z,7.10
2019-01-15T22:16:49.110Z,7.10
2019-01-15T22:19:35.986Z,7.10
2019-01-15T22:22:23.995Z,7.10
2019-01-15T22:25:31.682Z,7.10
2019-01-15T22:28:19.967Z,7.10
2019-01-15T22:31:09.285Z,7.10
2019-01-15T22:33:47.537Z,7.00
2019-01-15T22:36:36.858Z,7.00
2019-01-15T22:39:38.222Z,7.00
2019-01-15T22:42:27.563Z,7.00
2019-01-15T22:45:27.911Z,7.00
2019-01-15T22:48:26.320Z,7.00
2019-01-15T22:51:14.018Z,7.00
2019-01-15T22:54:09.119Z,7.00
2019-01-15T22:57:07.493Z,7.00
2019-01-15T22:59:55.657Z,7.00
2019-01-15T23:03:00.123Z,7.00
2019-01-15T23:05:56.422Z,6.90
2019-01-15T23:08:48.206Z,6.90
2019-01-15T23:11:40.783Z,6.90
2019-01-15T23:14:27.824Z,6.90
2019-01-15T23:17:18.289Z,6.90
2019-01-15T23:20:06.109Z,6.90
2019-01-15T23:23:01.301Z,6.90
2019-01-15T23:25:56.560Z,6.80
2019-01-15T23:28:44.823Z,6.80
2019-01-15T23:31:46.462Z,6.80
2019-01-15T23:34:24.579Z,6.80
2019-01-15T23:37:15.867Z,6.80
2019-01-15T23:40:04.007Z,6.80
2019-01-15T23:43:12.029Z,6.80
2019-01-15T23:46:16.711Z,6.80
2019-01-15T23:49:06.236Z,6.80
2019-01-15T23:51:58.702Z,6.80
2019-01-15T23:54:51.037Z,6.80
2019-01-15T23:57:55.262Z,6.80
